createdAt,value
2019-03-05T00:01:14.772Z,9.72
2019-03-05T00:02:19.867Z,9.70
2019-03-05T00:03:24.938Z,9.67
2019-03-05T00:04:29.975Z,9.66
2019-03-05T00:05:35.038Z,9.63
2019-03-05T00:06:40.300Z,9.61
2019-03-05T00:07:45.677Z,9.58
2019-03-05T00:08:50.891Z,9.57
2019-03-05T00:09:55.965Z,9.56
2019-03-05T00:11:01.135Z,9.55
2019-03-05T00:12:06.240Z,9.54
2019-03-05T00:13:11.391Z,9.54
2019-03-05T00:14:18.748Z,9.53
2019-03-05T00:15:25.999Z,9.55
2019-03-05T00:16:30.954Z,9.56
2019-03-05T00:17:35.972Z,9.57
2019-03-05T00:18:40.956Z,9.58
2019-03-05T00:19:46.208Z,9.59
2019-03-05T00:20:51.688Z,9.59
2019-03-05T00:21:56.704Z,9.59
2019-03-05T00:23:01.826Z,9.59
2019-03-05T00:24:42.484Z,9.59
2019-03-05T00:25:47.444Z,9.58
2019-03-05T00:26:52.931Z,9.56
2019-03-05T00:28:39.062Z,9.55
2019-03-05T00:30:12.553Z,9.54
2019-03-05T00:31:27.135Z,9.53
2019-03-05T00:32:32.163Z,9.51
2019-03-05T00:34:04.112Z,9.48
2019-03-05T00:35:47.805Z,9.48
2019-03-05T00:37:12.056Z,9.47
2019-03-05T00:38:32.672Z,9.47
2019-03-05T00:40:17.352Z,9.47
2019-03-05T00:41:36.374Z,9.44
2019-03-05T00:43:18.832Z,9.41
2019-03-05T00:44:46.917Z,9.39
2019-03-05T00:45:59.327Z,9.35
2019-03-05T00:47:21.308Z,9.34
2019-03-05T00:48:48.741Z,9.31
2019-03-05T00:50:05.877Z,9.31
2019-03-05T00:51:50.443Z,9.30
2019-03-05T00:53:26.787Z,9.32
2019-03-05T00:54:59.954Z,9.33
2019-03-05T00:57:00.200Z,9.34
2019-03-05T00:58:13.134Z,9.34
2019-03-05T01:00:07.814Z,9.35
2019-03-05T01:01:28.073Z,9.36
2019-03-05T01:02:52.705Z,9.36
2019-03-05T01:04:07.947Z,9.37
2019-03-05T01:06:02.796Z,9.39
2019-03-05T01:07:07.789Z,9.41
2019-03-05T01:08:13.099Z,9.46
2019-03-05T01:09:21.564Z,9.48
2019-03-05T01:10:26.543Z,9.50
2019-03-05T01:11:31.520Z,9.54
2019-03-05T01:12:36.890Z,9.54
2019-03-05T01:13:41.985Z,9.56
2019-03-05T01:14:47.596Z,9.55
2019-03-05T01:15:52.768Z,9.56
2019-03-05T01:16:58.159Z,9.56
2019-03-05T01:18:03.224Z,9.56
2019-03-05T01:19:08.246Z,9.58
2019-03-05T01:20:13.341Z,9.57
2019-03-05T01:21:18.407Z,9.57
2019-03-05T01:22:23.414Z,9.56
2019-03-05T01:23:28.508Z,9.55
2019-03-05T01:24:33.634Z,9.53
2019-03-05T01:25:38.797Z,9.52
2019-03-05T01:26:43.787Z,9.51
2019-03-05T01:27:49.324Z,9.48
2019-03-05T01:28:54.319Z,9.44
2019-03-05T01:29:59.377Z,9.42
2019-03-05T01:31:26.271Z,9.42
2019-03-05T01:32:50.796Z,9.43
2019-03-05T01:34:03.075Z,9.43
2019-03-05T01:35:30.726Z,9.47
2019-03-05T01:36:38.946Z,9.47
2019-03-05T01:37:44.040Z,9.47
2019-03-05T01:39:05.126Z,9.45
2019-03-05T01:40:22.517Z,9.43
2019-03-05T01:41:27.629Z,9.42
2019-03-05T01:42:32.605Z,9.41
2019-03-05T01:43:37.561Z,9.39
2019-03-05T01:44:43.361Z,9.35
2019-03-05T01:45:48.502Z,9.33
2019-03-05T01:46:53.945Z,9.33
2019-03-05T01:47:59.036Z,9.31
2019-03-05T01:49:04.018Z,9.29
2019-03-05T01:50:11.278Z,9.27
2019-03-05T01:51:16.305Z,9.23
2019-03-05T01:52:21.224Z,9.21
2019-03-05T01:53:26.121Z,9.20
2019-03-05T01:54:31.253Z,9.19
2019-03-05T01:55:36.277Z,9.16
2019-03-05T01:56:41.621Z,9.13
2019-03-05T01:57:46.545Z,9.11
2019-03-05T01:58:51.464Z,9.11
2019-03-05T01:59:56.599Z,9.12
2019-03-05T02:01:01.678Z,9.09
2019-03-05T02:02:06.809Z,9.09
2019-03-05T02:03:12.038Z,9.08
2019-03-05T02:04:17.232Z,9.07
2019-03-05T02:05:22.340Z,9.05
2019-03-05T02:06:27.296Z,9.03
2019-03-05T02:07:32.402Z,9.01
2019-03-05T02:08:37.466Z,8.99
2019-03-05T02:09:42.442Z,9.00
2019-03-05T02:10:49.401Z,9.00
2019-03-05T02:11:54.455Z,9.02
2019-03-05T02:12:59.708Z,9.03
2019-03-05T02:14:04.791Z,9.06
2019-03-05T02:15:09.865Z,9.08
2019-03-05T02:16:14.947Z,9.11
2019-03-05T02:17:20.181Z,9.15
2019-03-05T02:18:26.834Z,9.17
2019-03-05T02:19:42.918Z,9.20
2019-03-05T02:20:48.137Z,9.21
2019-03-05T02:21:53.192Z,9.19
2019-03-05T02:23:21.603Z,9.16
2019-03-05T02:25:01.102Z,9.18
2019-03-05T02:26:38.970Z,9.20
2019-03-05T02:28:12.526Z,9.18
2019-03-05T02:29:45.585Z,9.14
2019-03-05T02:31:30.415Z,9.10
2019-03-05T02:33:08.504Z,9.09
2019-03-05T02:34:46.750Z,9.10
2019-03-05T02:36:03.937Z,9.11
2019-03-05T02:37:53.157Z,9.09
2019-03-05T02:39:25.095Z,9.06
2019-03-05T02:40:47.809Z,8.98
2019-03-05T02:42:35.525Z,8.93
2019-03-05T02:44:06.924Z,8.88
2019-03-05T02:45:42.424Z,8.90
2019-03-05T02:47:13.707Z,8.93
2019-03-05T02:48:53.315Z,8.95
2019-03-05T02:50:55.883Z,8.98
2019-03-05T02:52:16.056Z,8.99
2019-03-05T02:54:02.301Z,9.02
2019-03-05T02:55:48.747Z,9.04
2019-03-05T02:57:08.622Z,9.05
2019-03-05T02:58:12.161Z,9.05
2019-03-05T02:59:15.692Z,9.07
2019-03-05T03:00:32.351Z,9.06
2019-03-05T03:01:56.677Z,9.05
2019-03-05T03:03:07.875Z,9.05
2019-03-05T03:04:15.088Z,9.05
2019-03-05T03:05:42.470Z,9.05
2019-03-05T03:06:47.968Z,9.02
2019-03-05T03:07:52.962Z,9.02
2019-03-05T03:09:30.891Z,9.04
2019-03-05T03:10:35.983Z,9.04
2019-03-05T03:11:40.951Z,9.04
2019-03-05T03:12:46.368Z,9.03
2019-03-05T03:13:51.338Z,9.03
2019-03-05T03:14:56.342Z,9.06
2019-03-05T03:16:01.285Z,9.09
2019-03-05T03:17:06.635Z,9.11
2019-03-05T03:18:11.600Z,9.09
2019-03-05T03:19:16.848Z,9.07
2019-03-05T03:20:22.963Z,9.07
2019-03-05T03:21:27.972Z,9.07
2019-03-05T03:22:32.903Z,9.08
2019-03-05T03:23:37.805Z,9.07
2019-03-05T03:24:42.831Z,9.08
2019-03-05T03:25:48.212Z,9.07
2019-03-05T03:26:53.129Z,9.07
2019-03-05T03:27:58.345Z,9.05
2019-03-05T03:29:03.369Z,9.06
2019-03-05T03:30:10.672Z,9.05
2019-03-05T03:31:15.672Z,9.04
2019-03-05T03:32:20.641Z,9.02
2019-03-05T03:33:25.871Z,8.99
2019-03-05T03:34:31.066Z,8.96
2019-03-05T03:35:36.122Z,8.94
2019-03-05T03:36:41.199Z,8.93
2019-03-05T03:37:46.391Z,8.93
2019-03-05T03:38:51.481Z,8.90
2019-03-05T03:39:56.506Z,8.89
2019-03-05T03:41:01.433Z,8.86
2019-03-05T03:42:06.507Z,8.84
2019-03-05T03:43:11.497Z,8.83
2019-03-05T03:44:16.541Z,8.82
2019-03-05T03:45:25.925Z,8.83
2019-03-05T03:46:30.878Z,8.83
2019-03-05T03:47:36.145Z,8.84
2019-03-05T03:48:41.128Z,8.84
2019-03-05T03:49:46.327Z,8.85
2019-03-05T03:50:51.369Z,8.83
2019-03-05T03:51:56.436Z,8.84
2019-03-05T03:53:01.434Z,8.84
2019-03-05T03:54:06.490Z,8.84
2019-03-05T03:55:12.453Z,8.81
2019-03-05T03:56:17.805Z,8.81
2019-03-05T03:57:22.764Z,8.81
2019-03-05T03:58:27.751Z,8.85
2019-03-05T03:59:32.803Z,8.86
2019-03-05T04:00:37.916Z,8.88
2019-03-05T04:01:42.964Z,8.89
2019-03-05T04:02:48.268Z,8.92
2019-03-05T04:03:53.312Z,8.93
2019-03-05T04:04:58.666Z,8.96
2019-03-05T04:06:03.706Z,8.99
2019-03-05T04:07:09.148Z,9.02
2019-03-05T04:08:14.228Z,9.03
2019-03-05T04:09:19.286Z,9.02
2019-03-05T04:10:24.212Z,9.01
2019-03-05T04:11:29.121Z,8.97
2019-03-05T04:12:34.064Z,8.93
2019-03-05T04:13:39.059Z,8.90
2019-03-05T04:14:44.061Z,8.87
2019-03-05T04:15:49.212Z,8.84
2019-03-05T04:16:54.173Z,8.82
2019-03-05T04:17:59.231Z,8.80
2019-03-05T04:19:06.842Z,8.78
2019-03-05T04:20:14.703Z,8.76
2019-03-05T04:21:20.253Z,8.73
2019-03-05T04:22:25.189Z,8.72
2019-03-05T04:23:30.180Z,8.73
2019-03-05T04:24:35.208Z,8.71
2019-03-05T04:25:40.414Z,8.70
2019-03-05T04:26:45.487Z,8.67
2019-03-05T04:27:50.531Z,8.65
2019-03-05T04:28:55.753Z,8.64
2019-03-05T04:30:00.762Z,8.66
2019-03-05T04:31:05.840Z,8.69
2019-03-05T04:32:10.766Z,8.73
2019-03-05T04:33:15.790Z,8.75
2019-03-05T04:34:20.743Z,8.76
2019-03-05T04:35:25.667Z,8.77
2019-03-05T04:36:30.855Z,8.80
2019-03-05T04:37:35.850Z,8.80
2019-03-05T04:38:41.030Z,8.81
2019-03-05T04:39:46.100Z,8.81
2019-03-05T04:40:51.061Z,8.83
2019-03-05T04:41:56.078Z,8.84
2019-03-05T04:43:00.980Z,8.85
2019-03-05T04:44:06.310Z,8.86
2019-03-05T04:46:08.828Z,8.87
2019-03-05T04:47:13.922Z,8.88
2019-03-05T04:48:19.055Z,8.90
2019-03-05T04:49:41.527Z,8.92
2019-03-05T04:50:50.943Z,8.93
2019-03-05T04:51:59.406Z,8.92
2019-03-05T04:53:04.359Z,8.94
2019-03-05T04:54:09.539Z,8.97
2019-03-05T04:55:14.521Z,8.98
2019-03-05T04:56:19.582Z,9.00
2019-03-05T04:57:24.773Z,9.02
2019-03-05T04:58:30.037Z,9.02
2019-03-05T04:59:35.305Z,9.03
2019-03-05T05:00:40.661Z,9.02
2019-03-05T05:01:45.856Z,9.04
2019-03-05T05:02:51.108Z,9.03
2019-03-05T05:03:56.182Z,9.06
2019-03-05T05:05:01.433Z,9.06
2019-03-05T05:06:06.702Z,9.08
2019-03-05T05:07:11.862Z,9.09
2019-03-05T05:08:16.883Z,9.10
2019-03-05T05:09:21.885Z,9.11
2019-03-05T05:10:27.121Z,9.12
2019-03-05T05:11:32.451Z,9.13
2019-03-05T05:12:37.736Z,9.13
2019-03-05T05:13:42.748Z,9.14
2019-03-05T05:14:47.760Z,9.13
2019-03-05T05:15:52.728Z,9.14
2019-03-05T05:16:57.778Z,9.14
2019-03-05T05:18:03.567Z,9.13
2019-03-05T05:19:08.568Z,9.14
2019-03-05T05:20:14.055Z,9.14
2019-03-05T05:21:19.162Z,9.15
2019-03-05T05:22:24.307Z,9.16
2019-03-05T05:23:29.489Z,9.18
2019-03-05T05:24:34.839Z,9.20
2019-03-05T05:25:39.874Z,9.21
2019-03-05T05:26:44.855Z,9.23
2019-03-05T05:27:49.874Z,9.24
2019-03-05T05:28:54.835Z,9.24
2019-03-05T05:29:59.785Z,9.24
2019-03-05T05:31:04.756Z,9.21
2019-03-05T05:32:09.671Z,9.21
2019-03-05T05:33:14.865Z,9.22
2019-03-05T05:34:20.223Z,9.24
2019-03-05T05:35:25.354Z,9.28
2019-03-05T05:36:30.363Z,9.29
2019-03-05T05:37:35.795Z,9.29
2019-03-05T05:38:40.735Z,9.29
2019-03-05T05:40:21.214Z,9.31
2019-03-05T05:41:26.248Z,9.31
2019-03-05T05:42:31.306Z,9.30
2019-03-05T05:43:36.330Z,9.31
2019-03-05T05:44:41.362Z,9.30
2019-03-05T05:45:48.097Z,9.28
2019-03-05T05:46:53.051Z,9.27
2019-03-05T05:47:58.027Z,9.26
2019-03-05T05:49:02.966Z,9.25
2019-03-05T05:50:08.038Z,9.25
2019-03-05T05:51:13.055Z,9.24
2019-03-05T05:52:18.346Z,9.24
2019-03-05T05:53:23.430Z,9.23
2019-03-05T05:54:28.419Z,9.22
2019-03-05T05:55:33.409Z,9.22
2019-03-05T05:56:38.437Z,9.22
2019-03-05T05:57:43.467Z,9.21
2019-03-05T05:58:48.706Z,9.19
2019-03-05T05:59:53.628Z,9.18
2019-03-05T06:01:00.485Z,9.18
2019-03-05T06:02:05.563Z,9.18
2019-03-05T06:03:10.665Z,9.16
2019-03-05T06:04:15.693Z,9.15
2019-03-05T06:05:20.676Z,9.15
2019-03-05T06:06:25.596Z,9.13
2019-03-05T06:07:30.585Z,9.11
2019-03-05T06:08:35.804Z,9.10
2019-03-05T06:09:40.844Z,9.09
2019-03-05T06:10:46.179Z,9.09
2019-03-05T06:11:51.182Z,9.09
2019-03-05T06:12:56.510Z,9.10
2019-03-05T06:14:01.455Z,9.10
2019-03-05T06:15:07.370Z,9.10
2019-03-05T06:16:12.543Z,9.09
2019-03-05T06:17:17.685Z,9.08
2019-03-05T06:18:23.062Z,9.10
2019-03-05T06:19:28.259Z,9.11
2019-03-05T06:20:33.227Z,9.11
2019-03-05T06:21:38.204Z,9.09
2019-03-05T06:22:43.235Z,9.08
2019-03-05T06:23:48.519Z,9.05
2019-03-05T06:24:53.606Z,9.02
2019-03-05T06:25:58.826Z,9.01
2019-03-05T06:27:03.826Z,8.99
2019-03-05T06:28:08.880Z,8.97
2019-03-05T06:29:14.094Z,8.97
2019-03-05T06:30:19.211Z,8.97
2019-03-05T06:31:24.143Z,8.97
2019-03-05T06:32:29.114Z,8.98
2019-03-05T06:33:34.132Z,8.98
2019-03-05T06:34:39.108Z,8.95
2019-03-05T06:35:44.287Z,8.95
2019-03-05T06:36:54.388Z,8.96
2019-03-05T06:37:59.511Z,8.94
2019-03-05T06:39:05.239Z,8.89
2019-03-05T06:40:12.719Z,8.88
2019-03-05T06:41:17.754Z,8.85
2019-03-05T06:42:23.516Z,8.81
2019-03-05T06:43:28.569Z,8.80
2019-03-05T06:44:33.622Z,8.78
2019-03-05T06:45:38.617Z,8.79
2019-03-05T06:46:43.738Z,8.77
2019-03-05T06:47:48.839Z,8.79
2019-03-05T06:48:53.811Z,8.80
2019-03-05T06:49:58.766Z,8.79
2019-03-05T06:51:03.858Z,8.79
2019-03-05T06:52:11.711Z,8.80
2019-03-05T06:53:16.072Z,8.80
2019-03-05T06:54:21.077Z,8.79
2019-03-05T06:55:26.123Z,8.78
2019-03-05T06:56:31.127Z,8.79
2019-03-05T06:57:36.172Z,8.81
2019-03-05T06:58:41.258Z,8.83
2019-03-05T06:59:46.200Z,8.85
2019-03-05T07:00:51.187Z,8.87
2019-03-05T07:01:56.381Z,8.87
2019-03-05T07:03:01.766Z,8.87
2019-03-05T07:04:06.933Z,8.86
2019-03-05T07:05:48.778Z,8.87
2019-03-05T07:06:55.394Z,8.85
2019-03-05T07:08:00.503Z,8.81
2019-03-05T07:09:15.796Z,8.81
2019-03-05T07:10:42.263Z,8.81
2019-03-05T07:12:16.421Z,8.81
2019-03-05T07:13:22.316Z,8.80
2019-03-05T07:14:36.728Z,8.79
2019-03-05T07:16:08.961Z,8.78
2019-03-05T07:17:27.136Z,8.79
2019-03-05T07:18:41.490Z,8.79
2019-03-05T07:20:16.002Z,8.82
2019-03-05T07:21:56.347Z,8.83
2019-03-05T07:23:23.433Z,8.80
2019-03-05T07:24:46.299Z,8.78
2019-03-05T07:25:51.223Z,8.78
2019-03-05T07:26:56.234Z,8.77
2019-03-05T07:28:01.250Z,8.78
2019-03-05T07:29:06.396Z,8.79
2019-03-05T07:30:17.667Z,8.82
2019-03-05T07:31:22.769Z,8.83
2019-03-05T07:32:28.012Z,8.86
2019-03-05T07:33:33.617Z,8.86
2019-03-05T07:34:39.944Z,8.83
2019-03-05T07:35:45.096Z,8.82
2019-03-05T07:36:50.131Z,8.84
2019-03-05T07:37:55.222Z,8.86
2019-03-05T07:39:00.111Z,8.90
2019-03-05T07:40:06.209Z,8.91
2019-03-05T07:41:11.291Z,8.88
2019-03-05T07:42:16.348Z,8.89
2019-03-05T07:43:21.391Z,8.92
2019-03-05T07:44:26.760Z,8.93
2019-03-05T07:45:32.045Z,8.94
2019-03-05T07:46:37.170Z,8.95
2019-03-05T07:47:42.337Z,8.98
2019-03-05T07:48:47.286Z,9.03
2019-03-05T07:49:52.488Z,9.05
2019-03-05T07:50:57.433Z,9.06
2019-03-05T07:52:02.536Z,9.07
2019-03-05T07:53:07.672Z,9.06
2019-03-05T07:54:13.242Z,9.06
2019-03-05T07:55:18.628Z,9.07
2019-03-05T07:56:23.599Z,9.09
2019-03-05T07:57:28.546Z,9.11
2019-03-05T07:58:33.827Z,9.13
2019-03-05T07:59:38.765Z,9.15
2019-03-05T08:00:44.198Z,9.18
2019-03-05T08:01:49.212Z,9.21
2019-03-05T08:02:54.223Z,9.24
2019-03-05T08:03:59.285Z,9.25
2019-03-05T08:05:04.481Z,9.26
2019-03-05T08:06:09.657Z,9.28
2019-03-05T08:07:14.703Z,9.32
2019-03-05T08:08:55.637Z,9.36
2019-03-05T08:10:07.090Z,9.37
2019-03-05T08:11:12.626Z,9.40
2019-03-05T08:13:01.768Z,9.43
2019-03-05T08:14:33.896Z,9.46
2019-03-05T08:16:21.579Z,9.42
2019-03-05T08:17:26.654Z,9.38
2019-03-05T08:18:31.764Z,9.35
2019-03-05T08:19:36.964Z,9.34
2019-03-05T08:20:42.216Z,9.33
2019-03-05T08:21:47.225Z,9.33
2019-03-05T08:22:52.351Z,9.32
2019-03-05T08:23:57.579Z,9.32
2019-03-05T08:25:02.827Z,9.32
2019-03-05T08:26:07.833Z,9.30
2019-03-05T08:27:12.936Z,9.28
2019-03-05T08:28:18.718Z,9.28
2019-03-05T08:29:23.717Z,9.27
2019-03-05T08:30:28.714Z,9.26
2019-03-05T08:31:33.748Z,9.24
2019-03-05T08:32:38.889Z,9.23
2019-03-05T08:33:43.955Z,9.23
2019-03-05T08:34:49.042Z,9.24
2019-03-05T08:35:54.091Z,9.24
2019-03-05T08:36:59.002Z,9.26
2019-03-05T08:38:04.027Z,9.28
2019-03-05T08:39:09.245Z,9.29
2019-03-05T08:40:14.652Z,9.31
2019-03-05T08:41:19.633Z,9.33
2019-03-05T08:42:24.566Z,9.33
2019-03-05T08:43:29.610Z,9.32
2019-03-05T08:44:34.872Z,9.31
2019-03-05T08:45:40.246Z,9.29
2019-03-05T08:46:45.470Z,9.26
2019-03-05T08:47:50.664Z,9.26
2019-03-05T08:48:56.016Z,9.28
2019-03-05T08:50:01.301Z,9.26
2019-03-05T08:51:06.282Z,9.26
2019-03-05T08:52:11.236Z,9.26
2019-03-05T08:53:16.468Z,9.25
2019-03-05T08:54:21.552Z,9.26
2019-03-05T08:55:26.670Z,9.27
2019-03-05T08:56:32.286Z,9.27
2019-03-05T08:57:37.257Z,9.25
2019-03-05T08:58:42.228Z,9.23
2019-03-05T08:59:47.486Z,9.23
2019-03-05T09:00:52.634Z,9.23
2019-03-05T09:01:57.946Z,9.21
2019-03-05T09:03:02.966Z,9.22
2019-03-05T09:04:08.281Z,9.23
2019-03-05T09:05:13.967Z,9.23
2019-03-05T09:06:19.088Z,9.23
2019-03-05T09:07:24.005Z,9.23
2019-03-05T09:08:29.291Z,9.23
2019-03-05T09:09:34.387Z,9.24
2019-03-05T09:10:39.511Z,9.24
2019-03-05T09:11:44.977Z,9.25
2019-03-05T09:12:50.138Z,9.26
2019-03-05T09:13:55.169Z,9.29
2019-03-05T09:15:00.310Z,9.33
2019-03-05T09:16:05.395Z,9.33
2019-03-05T09:17:10.780Z,9.38
2019-03-05T09:18:15.893Z,9.39
2019-03-05T09:19:20.951Z,9.44
2019-03-05T09:20:26.089Z,9.44
2019-03-05T09:21:32.753Z,9.50
2019-03-05T09:22:37.845Z,9.53
2019-03-05T09:23:42.985Z,9.58
2019-03-05T09:24:47.949Z,9.64
2019-03-05T09:25:53.093Z,9.64
2019-03-05T09:26:58.063Z,9.68
2019-03-05T09:28:03.060Z,9.70
2019-03-05T09:29:08.114Z,9.72
2019-03-05T09:30:15.929Z,9.73
2019-03-05T09:31:20.898Z,9.77
2019-03-05T09:32:26.237Z,9.80
2019-03-05T09:33:31.322Z,9.85
2019-03-05T09:34:36.223Z,9.92
2019-03-05T09:35:41.223Z,9.92
2019-03-05T09:36:50.788Z,9.94
2019-03-05T09:37:52.999Z,9.98
2019-03-05T09:38:58.060Z,10.01
2019-03-05T09:40:03.130Z,10.04
2019-03-05T09:41:08.642Z,10.08
2019-03-05T09:42:13.773Z,10.16
2019-03-05T09:43:18.766Z,10.16
2019-03-05T09:44:23.790Z,10.19
2019-03-05T09:45:29.227Z,10.24
2019-03-05T09:46:34.113Z,10.29
2019-03-05T09:47:39.128Z,10.32
2019-03-05T09:48:44.221Z,10.34
2019-03-05T09:49:49.152Z,10.38
2019-03-05T09:50:54.345Z,10.43
2019-03-05T09:51:59.372Z,10.43
2019-03-05T09:53:05.084Z,10.44
2019-03-05T09:54:10.240Z,10.45
2019-03-05T09:55:17.474Z,10.46
2019-03-05T09:56:22.613Z,10.56
2019-03-05T09:57:29.022Z,10.56
2019-03-05T09:58:34.244Z,10.60
2019-03-05T09:59:39.689Z,10.63
2019-03-05T10:00:44.645Z,10.65
2019-03-05T10:01:51.836Z,10.68
2019-03-05T10:02:56.975Z,10.75
2019-03-05T10:04:02.175Z,10.78
2019-03-05T10:05:08.369Z,10.80
2019-03-05T10:06:13.338Z,10.78
2019-03-05T10:07:19.354Z,10.78
2019-03-05T10:08:32.384Z,10.75
2019-03-05T10:09:31.563Z,10.77
2019-03-05T10:10:36.613Z,10.72
2019-03-05T10:11:42.083Z,10.72
2019-03-05T10:12:47.426Z,10.78
2019-03-05T10:13:52.520Z,10.77
2019-03-05T10:14:57.524Z,10.78
2019-03-05T10:16:02.464Z,10.79
2019-03-05T10:17:07.483Z,10.81
2019-03-05T10:18:13.234Z,10.80
2019-03-05T10:19:18.511Z,10.80
2019-03-05T10:20:23.509Z,10.82
2019-03-05T10:21:28.433Z,10.82
2019-03-05T10:22:33.357Z,10.87
2019-03-05T10:23:38.533Z,10.90
2019-03-05T10:24:43.999Z,10.93
2019-03-05T10:25:49.490Z,10.97
2019-03-05T10:26:54.665Z,10.99
2019-03-05T10:28:00.187Z,11.02
2019-03-05T10:29:06.947Z,11.01
2019-03-05T10:30:24.695Z,11.01
2019-03-05T10:31:23.907Z,10.98
2019-03-05T10:32:29.007Z,10.99
2019-03-05T10:33:33.997Z,10.99
2019-03-05T10:34:39.119Z,11.04
2019-03-05T10:35:44.180Z,11.06
2019-03-05T10:36:49.360Z,11.08
2019-03-05T10:37:55.818Z,11.09
2019-03-05T10:39:00.911Z,11.07
2019-03-05T10:40:06.334Z,11.04
2019-03-05T10:41:11.708Z,11.02
2019-03-05T10:42:16.792Z,11.00
2019-03-05T10:43:21.725Z,10.98
2019-03-05T10:44:26.942Z,10.95
2019-03-05T10:45:31.968Z,10.85
2019-03-05T10:46:37.237Z,10.83
2019-03-05T10:47:42.314Z,10.83
2019-03-05T10:48:47.747Z,10.81
2019-03-05T10:49:52.819Z,10.78
2019-03-05T10:50:58.687Z,10.81
2019-03-05T10:52:03.877Z,10.86
2019-03-05T10:53:08.934Z,10.92
2019-03-05T10:54:13.938Z,10.97
2019-03-05T10:55:26.310Z,11.03
2019-03-05T10:56:27.012Z,11.07
2019-03-05T10:57:36.691Z,11.01
2019-03-05T10:58:41.866Z,11.12
2019-03-05T10:59:47.205Z,11.16
2019-03-05T11:00:52.370Z,11.18
2019-03-05T11:01:57.622Z,11.18
2019-03-05T11:03:02.798Z,11.21
2019-03-05T11:04:08.027Z,11.26
2019-03-05T11:05:13.287Z,11.26
2019-03-05T11:06:18.384Z,11.27
2019-03-05T11:07:24.225Z,11.28
2019-03-05T11:08:29.394Z,11.29
2019-03-05T11:09:34.781Z,11.29
2019-03-05T11:10:41.235Z,11.29
2019-03-05T11:11:46.416Z,11.30
2019-03-05T11:12:51.459Z,11.31
2019-03-05T11:13:56.472Z,11.32
2019-03-05T11:15:01.647Z,11.27
2019-03-05T11:16:06.760Z,11.31
2019-03-05T11:17:11.982Z,11.30
2019-03-05T11:18:17.077Z,11.29
2019-03-05T11:19:21.991Z,11.31
2019-03-05T11:20:27.302Z,11.33
2019-03-05T11:21:32.417Z,11.29
2019-03-05T11:22:37.888Z,11.29
2019-03-05T11:23:42.968Z,11.34
2019-03-05T11:24:48.152Z,11.38
2019-03-05T11:25:53.236Z,11.42
2019-03-05T11:26:58.267Z,11.47
2019-03-05T11:28:03.558Z,11.51
2019-03-05T11:29:08.551Z,11.56
2019-03-05T11:30:17.081Z,11.56
2019-03-05T11:31:22.099Z,11.56
2019-03-05T11:32:27.084Z,11.60
2019-03-05T11:33:32.082Z,11.66
2019-03-05T11:34:37.151Z,11.76
2019-03-05T11:35:42.406Z,11.79
2019-03-05T11:36:47.510Z,11.82
2019-03-05T11:37:52.560Z,11.86
2019-03-05T11:38:57.599Z,11.93
2019-03-05T11:40:02.662Z,12.00
2019-03-05T11:41:07.777Z,12.09
2019-03-05T11:42:12.724Z,12.13
2019-03-05T11:43:18.103Z,12.18
2019-03-05T11:44:23.225Z,12.21
2019-03-05T11:45:28.530Z,12.22
2019-03-05T11:46:33.495Z,12.25
2019-03-05T11:47:38.549Z,12.26
2019-03-05T11:48:43.714Z,12.28
2019-03-05T11:49:48.824Z,12.25
2019-03-05T11:50:53.789Z,12.24
2019-03-05T11:51:59.106Z,12.24
2019-03-05T11:53:04.112Z,12.24
2019-03-05T11:54:09.417Z,12.27
2019-03-05T11:55:15.643Z,12.30
2019-03-05T11:56:20.926Z,12.32
2019-03-05T11:57:26.082Z,12.34
2019-03-05T11:58:31.027Z,12.37
2019-03-05T11:59:36.297Z,12.41
2019-03-05T12:00:59.803Z,12.41
2019-03-05T12:02:05.295Z,12.42
2019-03-05T12:03:10.666Z,12.40
2019-03-05T12:04:15.603Z,12.37
2019-03-05T12:05:21.183Z,12.34
2019-03-05T12:06:26.181Z,12.30
2019-03-05T12:07:31.103Z,12.25
2019-03-05T12:08:36.263Z,12.19
2019-03-05T12:09:41.602Z,12.14
2019-03-05T12:10:46.588Z,12.08
2019-03-05T12:11:51.646Z,12.05
2019-03-05T12:12:56.830Z,11.99
2019-03-05T12:14:01.800Z,11.94
2019-03-05T12:15:09.522Z,11.90
2019-03-05T12:16:15.329Z,11.88
2019-03-05T12:17:20.367Z,11.86
2019-03-05T12:18:25.624Z,11.85
2019-03-05T12:19:31.238Z,11.85
2019-03-05T12:20:36.596Z,11.87
2019-03-05T12:21:41.633Z,11.87
2019-03-05T12:22:46.720Z,11.85
2019-03-05T12:23:52.172Z,11.82
2019-03-05T12:24:57.732Z,11.79
2019-03-05T12:26:03.795Z,11.78
2019-03-05T12:27:08.927Z,11.74
2019-03-05T12:28:14.076Z,11.70
2019-03-05T12:29:19.243Z,11.66
2019-03-05T12:30:24.550Z,11.63
2019-03-05T12:31:29.696Z,11.58
2019-03-05T12:32:34.891Z,11.56
2019-03-05T12:33:40.007Z,11.53
2019-03-05T12:34:45.035Z,11.52
2019-03-05T12:35:50.139Z,11.46
2019-03-05T12:36:55.541Z,11.43
2019-03-05T12:38:00.434Z,11.39
2019-03-05T12:39:06.412Z,11.37
2019-03-05T12:40:12.654Z,11.37
2019-03-05T12:41:17.976Z,11.40
2019-03-05T12:42:23.081Z,11.41
2019-03-05T12:43:28.039Z,11.41
2019-03-05T12:44:33.401Z,11.43
2019-03-05T12:45:38.440Z,11.44
2019-03-05T12:46:43.486Z,11.45
2019-03-05T12:47:48.896Z,11.47
2019-03-05T12:48:53.963Z,11.46
2019-03-05T12:49:59.158Z,11.47
2019-03-05T12:51:04.521Z,11.48
2019-03-05T12:52:10.193Z,11.52
2019-03-05T12:53:16.144Z,11.53
2019-03-05T12:54:21.283Z,11.53
2019-03-05T12:55:26.484Z,11.58
2019-03-05T12:56:31.554Z,11.66
2019-03-05T12:57:36.774Z,11.72
2019-03-05T12:58:42.517Z,11.73
2019-03-05T12:59:47.512Z,11.83
2019-03-05T13:00:52.899Z,11.91
2019-03-05T13:01:57.990Z,11.96
2019-03-05T13:03:03.117Z,11.97
2019-03-05T13:04:08.236Z,11.98
2019-03-05T13:05:13.960Z,11.99
2019-03-05T13:06:19.014Z,12.07
2019-03-05T13:07:24.264Z,12.12
2019-03-05T13:08:29.365Z,12.15
2019-03-05T13:09:34.423Z,12.19
2019-03-05T13:10:39.427Z,12.23
2019-03-05T13:11:46.625Z,12.27
2019-03-05T13:12:51.062Z,12.28
2019-03-05T13:14:05.738Z,12.27
2019-03-05T13:15:03.144Z,12.26
2019-03-05T13:16:08.175Z,12.24
2019-03-05T13:17:13.482Z,12.22
2019-03-05T13:18:18.786Z,12.23
2019-03-05T13:19:23.802Z,12.23
2019-03-05T13:20:29.181Z,12.24
2019-03-05T13:21:34.177Z,12.26
2019-03-05T13:22:39.177Z,12.23
2019-03-05T13:23:44.475Z,12.21
2019-03-05T13:24:50.217Z,12.18
2019-03-05T13:25:56.264Z,12.15
2019-03-05T13:27:01.263Z,12.10
2019-03-05T13:28:06.271Z,12.05
2019-03-05T13:29:14.425Z,12.00
2019-03-05T13:30:21.968Z,11.96
2019-03-05T13:31:26.456Z,11.94
2019-03-05T13:32:31.388Z,11.93
2019-03-05T13:33:37.623Z,11.91
2019-03-05T13:34:43.051Z,11.88
2019-03-05T13:35:48.116Z,11.85
2019-03-05T13:36:53.406Z,11.85
2019-03-05T13:37:58.748Z,11.86
2019-03-05T13:39:05.313Z,11.89
2019-03-05T13:40:12.812Z,11.91
2019-03-05T13:41:17.861Z,11.96
2019-03-05T13:42:22.878Z,12.00
2019-03-05T13:43:27.892Z,12.06
2019-03-05T13:44:36.389Z,12.10
2019-03-05T13:45:49.138Z,12.16
2019-03-05T13:46:48.260Z,12.21
2019-03-05T13:48:20.523Z,12.25
2019-03-05T13:49:40.933Z,12.31
2019-03-05T13:51:45.881Z,12.41
2019-03-05T13:53:14.281Z,12.51
2019-03-05T13:54:32.460Z,12.60
2019-03-05T13:56:00.521Z,12.59
2019-03-05T13:57:51.454Z,12.53
2019-03-05T13:59:42.836Z,12.49
2019-03-05T14:00:47.946Z,12.48
2019-03-05T14:01:52.988Z,12.46
2019-03-05T14:03:25.147Z,12.43
2019-03-05T14:04:34.003Z,12.40
2019-03-05T14:06:15.978Z,12.37
2019-03-05T14:08:01.929Z,12.36
2019-03-05T14:09:20.996Z,12.33
2019-03-05T14:10:26.351Z,12.34
2019-03-05T14:11:31.318Z,12.36
2019-03-05T14:12:36.397Z,12.36
2019-03-05T14:13:41.373Z,12.37
2019-03-05T14:14:46.392Z,12.37
2019-03-05T14:15:51.501Z,12.38
2019-03-05T14:17:09.372Z,12.37
2019-03-05T14:18:14.443Z,12.34
2019-03-05T14:19:19.681Z,12.29
2019-03-05T14:20:31.690Z,12.28
2019-03-05T14:21:31.646Z,12.24
2019-03-05T14:22:36.757Z,12.21
2019-03-05T14:23:41.768Z,12.18
2019-03-05T14:24:47.118Z,12.18
2019-03-05T14:25:53.822Z,12.15
2019-03-05T14:26:59.021Z,12.12
2019-03-05T14:28:04.306Z,12.11
2019-03-05T14:29:09.643Z,12.09
2019-03-05T14:30:17.059Z,12.06
2019-03-05T14:31:22.116Z,12.01
2019-03-05T14:32:27.404Z,11.96
2019-03-05T14:33:32.554Z,11.93
2019-03-05T14:34:37.687Z,11.91
2019-03-05T14:35:43.132Z,11.90
2019-03-05T14:36:48.258Z,11.85
2019-03-05T14:37:53.386Z,11.89
2019-03-05T14:38:58.360Z,11.88
2019-03-05T14:40:22.915Z,11.85
2019-03-05T14:41:10.798Z,11.82
2019-03-05T14:42:16.204Z,11.80
2019-03-05T14:43:21.308Z,11.79
2019-03-05T14:44:26.398Z,11.78
2019-03-05T14:45:33.297Z,11.77
2019-03-05T14:46:39.163Z,11.75
2019-03-05T14:47:44.251Z,11.73
2019-03-05T14:48:49.195Z,11.74
2019-03-05T14:49:54.448Z,11.73
2019-03-05T14:50:59.506Z,11.72
2019-03-05T14:52:05.495Z,11.72
2019-03-05T14:53:10.479Z,11.72
2019-03-05T14:54:15.616Z,11.72
2019-03-05T14:55:20.913Z,11.74
2019-03-05T14:56:26.001Z,11.76
2019-03-05T14:57:31.368Z,11.78
2019-03-05T14:58:36.490Z,11.83
2019-03-05T14:59:41.873Z,11.85
2019-03-05T15:00:46.819Z,11.90